createdAt,value
2022-10-28T00:00:53.603Z,96855.03
2022-10-28T00:01:58.541Z,96861.06
2022-10-28T00:03:02.029Z,96858.53
2022-10-28T00:04:07.335Z,96855.94
2022-10-28T00:05:09.872Z,96854.28
2022-10-28T00:06:18.206Z,96858.53
2022-10-28T00:07:22.825Z,96866.47
2022-10-28T00:08:27.499Z,96856.22
2022-10-28T00:09:29.776Z,96852.81
2022-10-28T00:10:34.443Z,96861.53
2022-10-28T00:11:36.476Z,96861.53
2022-10-28T00:12:41.810Z,96856.34
2022-10-28T00:13:45.855Z,96858.00
2022-10-28T00:14:50.848Z,96858.00
2022-10-28T00:15:52.875Z,96863.19
2022-10-28T00:16:57.634Z,96858.94
2022-10-28T00:18:00.181Z,96853.75
2022-10-28T00:19:07.222Z,96851.16
2022-10-28T00:20:10.346Z,96855.53
2022-10-28T00:21:19.231Z,96858.00
2022-10-28T00:22:24.041Z,96860.66
2022-10-28T00:23:28.663Z,96872.75
2022-10-28T00:24:33.312Z,96861.53
2022-10-28T00:25:35.372Z,96858.00
2022-10-28T00:26:42.345Z,96869.94
2022-10-28T00:27:44.427Z,96859.56
2022-10-28T00:28:50.272Z,96869.09
2022-10-28T00:29:52.341Z,96859.69
2022-10-28T00:30:56.979Z,96861.41
2022-10-28T00:31:59.065Z,96861.41
2022-10-28T00:33:03.670Z,96864.88
2022-10-28T00:34:11.548Z,96868.25
2022-10-28T00:35:16.232Z,96856.22
2022-10-28T00:36:20.119Z,96862.28
2022-10-28T00:37:27.390Z,96854.50
2022-10-28T00:38:31.014Z,96856.25
2022-10-28T00:39:35.620Z,96852.69
2022-10-28T00:40:37.712Z,96850.19
2022-10-28T00:41:45.337Z,96857.09
2022-10-28T00:42:47.376Z,96847.59
2022-10-28T00:43:54.224Z,96842.44
2022-10-28T00:44:58.826Z,96850.19
2022-10-28T00:46:04.128Z,96846.72
2022-10-28T00:47:11.437Z,96848.47
2022-10-28T00:48:16.301Z,96842.44
2022-10-28T00:49:22.444Z,96837.25
2022-10-28T00:50:46.265Z,96842.31
2022-10-28T00:51:56.490Z,96843.09
2022-10-28T00:53:03.959Z,96839.66
2022-10-28T00:54:09.437Z,96839.66
2022-10-28T00:55:13.126Z,96838.69
2022-10-28T00:56:20.010Z,96833.56
2022-10-28T00:57:26.968Z,96830.84
2022-10-28T00:58:33.509Z,96829.06
2022-10-28T00:59:38.974Z,96828.19
2022-10-28T01:02:42.550Z,96842.13
2022-10-28T01:04:12.131Z,96834.41
2022-10-28T01:05:51.141Z,96843.03
2022-10-28T01:07:18.123Z,96843.03
2022-10-28T01:08:35.951Z,96841.28
2022-10-28T01:10:08.289Z,96844.72
2022-10-28T01:13:02.633Z,96841.22
2022-10-28T01:15:01.910Z,96843.09
2022-10-28T01:16:39.021Z,96831.22
2022-10-28T01:17:59.599Z,96837.44
2022-10-28T01:19:54.360Z,96834.00
2022-10-28T01:21:46.452Z,96839.31
2022-10-28T01:23:11.498Z,96841.91
2022-10-28T01:24:58.553Z,96834.19
2022-10-28T01:27:00.126Z,96834.25
2022-10-28T01:28:59.697Z,96836.97
2022-10-28T01:30:34.114Z,96837.00
2022-10-28T01:32:12.528Z,96827.59
2022-10-28T01:33:34.848Z,96825.00
2022-10-28T01:34:51.171Z,96825.09
2022-10-28T01:36:00.997Z,96829.44
2022-10-28T01:37:13.259Z,96830.28
2022-10-28T01:38:30.212Z,96825.00
2022-10-28T01:39:39.635Z,96833.59
2022-10-28T01:40:53.395Z,96828.47
2022-10-28T01:42:00.902Z,96831.13
2022-10-28T01:43:27.494Z,96828.47
2022-10-28T01:44:50.610Z,96826.72
2022-10-28T01:46:34.599Z,96831.81
2022-10-28T01:48:14.694Z,96833.72
2022-10-28T01:49:38.677Z,96831.06
2022-10-28T01:51:13.538Z,96832.69
2022-10-28T01:52:42.441Z,96828.34
2022-10-28T01:54:01.516Z,96829.06
2022-10-28T01:55:22.029Z,96831.53
2022-10-28T01:56:47.367Z,96832.25
2022-10-28T01:58:07.805Z,96826.16
2022-10-28T01:59:14.326Z,96823.50
2022-10-28T02:00:46.746Z,96819.13
2022-10-28T02:02:11.817Z,96824.22
2022-10-28T02:03:33.926Z,96821.56
2022-10-28T02:05:35.409Z,96831.75
2022-10-28T02:07:00.494Z,96828.19
2022-10-28T02:08:27.601Z,96826.34
2022-10-28T02:10:04.675Z,96824.41
2022-10-28T02:11:40.619Z,96827.66
2022-10-28T02:12:59.147Z,96825.06
2022-10-28T02:14:37.878Z,96823.19
2022-10-28T02:16:07.164Z,96817.16
2022-10-28T02:17:43.147Z,96822.34
2022-10-28T02:19:15.804Z,96817.28
2022-10-28T02:20:32.204Z,96817.25
2022-10-28T02:23:31.086Z,96822.59
2022-10-28T02:24:53.568Z,96819.31
2022-10-28T02:26:34.591Z,96818.53
2022-10-28T02:27:50.010Z,96820.44
2022-10-28T02:29:07.972Z,96823.13
2022-10-28T02:30:27.181Z,96822.25
2022-10-28T02:31:52.514Z,96828.38
2022-10-28T02:33:15.102Z,96819.75
2022-10-28T02:34:48.526Z,96819.63
2022-10-28T02:38:10.349Z,96817.81
2022-10-28T02:40:42.834Z,96816.94
2022-10-28T02:42:17.043Z,96811.75
2022-10-28T02:43:43.051Z,96814.28
2022-10-28T02:44:56.939Z,96812.53
2022-10-28T02:46:45.765Z,96813.50
2022-10-28T02:48:38.841Z,96814.44
2022-10-28T02:51:37.945Z,96811.00
2022-10-28T02:52:56.284Z,96812.63
2022-10-28T02:54:17.817Z,96801.31
2022-10-28T02:55:40.997Z,96800.47
2022-10-28T02:57:03.108Z,96809.09
2022-10-28T02:58:23.581Z,96804.84
2022-10-28T02:59:36.636Z,96803.06
2022-10-28T03:00:58.139Z,96803.06
2022-10-28T03:02:20.935Z,96805.72
2022-10-28T03:03:45.041Z,96804.88
2022-10-28T03:05:03.334Z,96807.56
2022-10-28T03:06:34.412Z,96797.19
2022-10-28T03:08:01.403Z,96805.84
2022-10-28T03:09:06.717Z,96795.47
2022-10-28T03:10:24.645Z,96793.66
2022-10-28T03:11:41.259Z,96799.66
2022-10-28T03:12:56.321Z,96796.13
2022-10-28T03:14:15.434Z,96800.28
2022-10-28T03:15:31.897Z,96798.47
2022-10-28T03:17:02.120Z,96794.84
2022-10-28T03:18:26.330Z,96802.63
2022-10-28T03:19:42.781Z,96798.19
2022-10-28T03:21:10.917Z,96803.38
2022-10-28T03:22:24.445Z,96798.97
2022-10-28T03:23:44.310Z,96802.41
2022-10-28T03:24:52.002Z,96800.88
2022-10-28T03:26:17.905Z,96796.66
2022-10-28T03:27:58.386Z,96800.88
2022-10-28T04:21:41.698Z,96802.22
2022-10-28T04:22:43.856Z,96803.91
2022-10-28T04:23:48.479Z,96799.50
2022-10-28T04:24:50.497Z,96798.34
2022-10-28T04:25:56.022Z,96795.63
2022-10-28T04:26:58.027Z,96802.34
2022-10-28T04:28:02.690Z,96802.06
2022-10-28T04:29:04.787Z,96794.94
2022-10-28T04:30:12.702Z,96802.53
2022-10-28T04:31:14.904Z,96800.53
2022-10-28T04:32:19.518Z,96801.16
2022-10-28T04:33:21.528Z,96807.84
2022-10-28T04:34:26.301Z,96804.19
2022-10-28T04:35:28.566Z,96808.31
2022-10-28T04:36:33.206Z,96804.63
2022-10-28T04:37:38.198Z,96802.72
2022-10-28T04:38:42.805Z,96813.84
2022-10-28T04:39:44.847Z,96807.66
2022-10-28T04:40:50.878Z,96807.53
2022-10-28T04:41:52.952Z,96805.53
2022-10-28T04:42:57.578Z,96796.75
2022-10-28T04:43:59.637Z,96801.91
2022-10-28T04:45:04.433Z,96795.88
2022-10-28T04:46:09.184Z,96796.75
2022-10-28T04:47:11.481Z,96789.75
2022-10-28T04:48:16.227Z,96779.50
2022-10-28T04:49:18.365Z,96777.72
2022-10-28T04:50:23.181Z,96774.34
2022-10-28T04:51:25.201Z,96775.34
2022-10-28T04:52:30.293Z,96771.00
2022-10-28T04:53:34.903Z,96771.91
2022-10-28T04:54:39.832Z,96771.84
2022-10-28T04:55:42.055Z,96769.09
2022-10-28T04:56:48.162Z,96776.91
2022-10-28T04:57:54.318Z,96785.47
2022-10-28T04:58:58.955Z,96784.53
2022-10-28T05:00:01.037Z,96776.75
2022-10-28T05:01:08.776Z,96782.78
2022-10-28T05:02:10.971Z,96780.28
2022-10-28T05:03:15.656Z,96785.47
2022-10-28T05:04:17.662Z,96785.47
2022-10-28T05:05:22.523Z,96782.88
2022-10-28T05:06:24.633Z,96790.66
2022-10-28T05:07:29.209Z,96788.97
2022-10-28T05:08:31.303Z,96797.59
2022-10-28T05:09:38.576Z,96792.34
2022-10-28T05:10:40.679Z,96786.31
2022-10-28T05:11:45.366Z,96781.09
2022-10-28T05:12:47.433Z,96782.72
2022-10-28T05:13:53.166Z,96777.53
2022-10-28T05:14:55.471Z,96789.53
2022-10-28T05:16:00.088Z,96787.78
2022-10-28T05:17:02.103Z,96786.84
2022-10-28T05:18:07.005Z,96785.03
2022-10-28T05:19:09.049Z,96779.53
2022-10-28T05:20:15.594Z,96779.41
2022-10-28T05:21:20.366Z,96782.78
2022-10-28T05:22:22.374Z,96783.47
2022-10-28T05:23:30.782Z,96784.31
2022-10-28T05:24:35.707Z,96778.94
2022-10-28T05:25:40.383Z,96785.84
2022-10-28T05:26:42.391Z,96775.38
2022-10-28T05:27:47.064Z,96783.16
2022-10-28T05:28:50.170Z,96782.19
2022-10-28T05:29:54.891Z,96778.69
2022-10-28T05:30:57.062Z,96792.44
2022-10-28T05:32:02.053Z,96783.75
2022-10-28T05:33:04.768Z,96781.13
2022-10-28T05:34:09.558Z,96784.63
2022-10-28T05:35:12.029Z,96778.53
2022-10-28T05:36:16.707Z,96775.00
2022-10-28T05:37:18.780Z,96776.81
2022-10-28T05:38:23.407Z,96783.75
2022-10-28T05:39:25.457Z,96785.34
2022-10-28T05:40:33.672Z,96780.22
2022-10-28T05:41:38.787Z,96772.41
2022-10-28T05:42:45.012Z,96782.91
2022-10-28T05:43:47.051Z,96782.81
2022-10-28T05:44:51.734Z,96782.03
2022-10-28T05:45:53.967Z,96777.75
2022-10-28T05:46:58.535Z,96782.97
2022-10-28T05:48:03.251Z,96777.84
2022-10-28T05:49:05.436Z,96776.97
2022-10-28T05:50:10.806Z,96783.09
2022-10-28T05:51:12.809Z,96783.09
2022-10-28T05:52:17.499Z,96784.78
2022-10-28T05:53:22.126Z,96775.25
2022-10-28T05:54:24.499Z,96776.91
2022-10-28T05:55:32.566Z,96786.34
2022-10-28T05:56:34.569Z,96773.19
2022-10-28T05:57:39.401Z,96778.38
2022-10-28T05:58:41.484Z,96776.72
2022-10-28T05:59:46.217Z,96774.03
2022-10-28T06:00:50.901Z,96767.19
2022-10-28T06:01:53.069Z,96762.94
2022-10-28T06:03:09.340Z,96758.63
2022-10-28T06:04:11.394Z,96751.75
2022-10-28T06:05:16.602Z,96749.16
2022-10-28T06:06:18.658Z,96746.53
2022-10-28T06:07:24.641Z,96743.88
2022-10-28T06:08:29.347Z,96737.59
2022-10-28T06:09:31.384Z,96738.38
2022-10-28T06:10:38.589Z,96746.09
2022-10-28T06:11:39.355Z,96748.69
2022-10-28T06:12:43.971Z,96747.66
2022-10-28T06:13:45.975Z,96748.78
2022-10-28T06:14:50.766Z,96752.94
2022-10-28T06:15:53.611Z,96754.16
2022-10-28T06:16:58.356Z,96752.22
2022-10-28T06:18:03.156Z,96750.13
2022-10-28T06:19:05.179Z,96753.94
2022-10-28T06:20:11.221Z,96751.84
2022-10-28T06:21:13.311Z,96755.06
2022-10-28T06:22:18.137Z,96750.53
2022-10-28T06:23:20.544Z,96756.44
2022-10-28T06:24:25.284Z,96749.28
2022-10-28T06:25:27.299Z,96754.41
2022-10-28T06:26:34.526Z,96755.16
2022-10-28T06:27:36.559Z,96760.31
2022-10-28T06:28:41.188Z,96761.13
2022-10-28T06:29:43.222Z,96762.81
2022-10-28T06:30:47.861Z,96769.72
2022-10-28T06:31:49.888Z,96766.94
2022-10-28T06:32:57.434Z,96777.28
2022-10-28T06:33:59.495Z,96780.75
2022-10-28T06:35:04.238Z,96783.38
2022-10-28T06:36:09.511Z,96780.94
2022-10-28T06:37:12.826Z,96781.81
2022-10-28T06:38:17.442Z,96786.03
2022-10-28T06:39:19.526Z,96789.59
2022-10-28T06:40:24.266Z,96792.41
2022-10-28T06:41:26.267Z,96790.81
2022-10-28T06:42:33.555Z,96794.44
2022-10-28T06:43:35.570Z,96793.59
2022-10-28T06:44:40.249Z,96796.44
2022-10-28T06:45:44.031Z,96800.13
2022-10-28T06:46:50.166Z,96795.09
2022-10-28T06:47:56.076Z,96800.47
2022-10-28T06:49:03.193Z,96802.28
2022-10-28T06:50:07.022Z,96796.41
2022-10-28T06:51:11.615Z,96792.19
2022-10-28T06:52:13.698Z,96787.97
2022-10-28T06:53:18.460Z,96796.03
2022-10-28T06:54:21.104Z,96796.03
2022-10-28T06:55:25.770Z,96791.81
2022-10-28T06:56:27.765Z,96794.50
2022-10-28T06:57:34.994Z,96798.94
2022-10-28T06:58:39.601Z,96792.97
2022-10-28T06:59:42.222Z,96800.78
2022-10-28T07:00:46.862Z,96791.31
2022-10-28T07:01:48.972Z,96798.19
2022-10-28T07:02:54.533Z,96794.69
2022-10-28T07:03:59.324Z,96796.19
2022-10-28T07:05:01.556Z,96788.31
2022-10-28T07:06:06.387Z,96790.81
2022-10-28T07:07:08.584Z,96792.34
2022-10-28T07:08:14.525Z,96798.25
2022-10-28T07:09:19.141Z,96792.81
2022-10-28T07:10:23.823Z,96788.19
2022-10-28T07:11:25.895Z,96792.25
2022-10-28T07:12:30.666Z,96791.97
2022-10-28T07:13:38.454Z,96795.97
2022-10-28T07:14:43.128Z,96790.41
2022-10-28T07:15:45.152Z,96786.53
2022-10-28T07:16:49.750Z,96786.22
2022-10-28T07:17:55.461Z,96784.88
2022-10-28T07:19:00.135Z,96795.75
2022-10-28T07:20:02.176Z,96791.88
2022-10-28T07:21:07.294Z,96798.50
2022-10-28T07:22:12.372Z,96800.88
2022-10-28T07:23:14.839Z,96800.53
2022-10-28T07:24:19.567Z,96799.44
2022-10-28T07:25:21.611Z,96800.88
2022-10-28T07:26:27.397Z,96806.59
2022-10-28T07:27:29.803Z,96798.53
2022-10-28T07:28:34.698Z,96798.19
2022-10-28T07:29:42.103Z,96795.31
2022-10-28T07:30:46.752Z,96800.38
2022-10-28T07:31:51.353Z,96796.00
2022-10-28T07:32:54.318Z,96799.34
2022-10-28T07:33:59.168Z,96801.03
2022-10-28T07:35:07.551Z,96800.03
2022-10-28T07:36:13.691Z,96794.63
2022-10-28T07:37:15.742Z,96801.25
2022-10-28T07:38:20.351Z,96796.69
2022-10-28T07:39:22.431Z,96793.81
2022-10-28T07:40:28.322Z,96796.16
2022-10-28T07:41:33.114Z,96793.28
2022-10-28T07:42:35.587Z,96789.41
2022-10-28T07:43:40.785Z,96794.34
2022-10-28T07:44:48.054Z,96796.50
2022-10-28T07:45:56.120Z,96787.28
2022-10-28T07:47:00.752Z,96797.28
2022-10-28T07:48:05.464Z,96786.47
2022-10-28T07:49:10.379Z,96795.50
2022-10-28T07:50:16.499Z,96789.91
2022-10-28T07:51:26.537Z,96790.41
2022-10-28T07:52:33.488Z,96790.59
2022-10-28T07:53:39.927Z,96785.75
2022-10-28T07:54:45.016Z,96786.00
2022-10-28T07:55:58.907Z,96786.09
2022-10-28T07:57:01.761Z,96782.78
2022-10-28T07:58:07.086Z,96780.31
2022-10-28T07:59:11.942Z,96780.59
2022-10-28T08:00:18.241Z,96783.28
2022-10-28T08:01:24.643Z,96779.84
2022-10-28T08:02:27.746Z,96786.19
2022-10-28T08:03:38.570Z,96779.50
2022-10-28T08:04:44.693Z,96782.91
2022-10-28T08:05:47.665Z,96782.00
2022-10-28T08:08:18.081Z,96777.53
2022-10-28T08:09:20.899Z,96778.34
2022-10-28T08:10:26.511Z,96780.22
2022-10-28T08:11:28.724Z,96780.66
2022-10-28T08:12:39.240Z,96785.25
2022-10-28T08:14:04.039Z,96780.41
2022-10-28T08:15:13.914Z,96778.94
2022-10-28T08:16:48.655Z,96780.41
2022-10-28T08:18:21.058Z,96777.28
2022-10-28T08:19:35.639Z,96785.78
2022-10-28T08:20:54.063Z,96790.59
2022-10-28T08:22:13.364Z,96786.06
2022-10-28T08:23:33.648Z,96790.25
2022-10-28T08:25:15.072Z,96790.13
2022-10-28T08:26:38.817Z,96787.28
2022-10-28T08:27:54.872Z,96783.63
2022-10-28T08:29:21.198Z,96786.88
2022-10-28T08:30:56.754Z,96791.91
2022-10-28T08:32:21.984Z,96791.69
2022-10-28T08:33:47.716Z,96797.53
2022-10-28T08:35:01.580Z,96792.69
2022-10-28T08:36:33.876Z,96798.44
2022-10-28T08:37:55.165Z,96795.59
2022-10-28T08:39:14.250Z,96795.16
2022-10-28T08:40:44.005Z,96795.56
2022-10-28T08:42:11.701Z,96800.34
2022-10-28T08:43:45.930Z,96793.72
2022-10-28T08:45:17.107Z,96800.06
2022-10-28T08:46:39.697Z,96799.63
2022-10-28T08:49:27.447Z,96801.13
2022-10-28T08:50:49.875Z,96799.72
2022-10-28T08:52:32.013Z,96805.13
2022-10-28T08:53:51.877Z,96811.38
2022-10-28T08:55:19.810Z,96806.25
2022-10-28T08:56:42.268Z,96802.19
2022-10-28T08:58:03.062Z,96812.25
2022-10-28T08:59:29.837Z,96807.22
2022-10-28T09:01:03.752Z,96807.63
2022-10-28T09:02:23.380Z,96810.59
2022-10-28T09:03:54.164Z,96810.34
2022-10-28T09:05:21.196Z,96813.47
2022-10-28T09:07:10.130Z,96813.00
2022-10-28T09:08:40.623Z,96817.56
2022-10-28T09:10:01.350Z,96820.69
2022-10-28T09:13:25.362Z,96823.44
2022-10-28T09:15:31.837Z,96816.13
2022-10-28T09:16:53.278Z,96820.06
2022-10-28T09:20:02.513Z,96823.03
2022-10-28T09:21:29.448Z,96813.56
2022-10-28T09:24:32.555Z,96819.72
2022-10-28T09:26:18.550Z,96820.78
2022-10-28T09:27:57.081Z,96814.53
2022-10-28T09:29:26.836Z,96814.63
2022-10-28T09:31:05.763Z,96819.25
2022-10-28T09:32:28.629Z,96828.47
2022-10-28T09:34:01.173Z,96820.19
2022-10-28T09:35:33.030Z,96821.84
2022-10-28T09:37:01.998Z,96826.03
2022-10-28T09:38:32.642Z,96829.25
2022-10-28T09:40:17.792Z,96831.63
2022-10-28T09:43:26.431Z,96835.88
2022-10-28T09:45:18.841Z,96840.50
2022-10-28T09:46:54.712Z,96843.22
2022-10-28T09:48:32.741Z,96844.56
2022-10-28T09:49:46.854Z,96841.75
2022-10-28T09:51:12.693Z,96845.69
2022-10-28T09:54:27.037Z,96843.28
2022-10-28T09:56:03.377Z,96834.56
2022-10-28T09:57:26.018Z,96843.25
2022-10-28T09:58:49.362Z,96845.16
2022-10-28T10:00:12.012Z,96842.53
2022-10-28T10:01:39.951Z,96837.00
2022-10-28T10:03:02.082Z,96835.09
2022-10-28T10:04:31.599Z,96835.44
2022-10-28T10:06:01.954Z,96832.56
2022-10-28T10:07:31.522Z,96833.41
2022-10-28T10:08:47.383Z,96832.34
2022-10-28T10:10:16.332Z,96836.69
2022-10-28T10:11:49.763Z,96845.38
2022-10-28T10:13:12.193Z,96838.78
2022-10-28T10:14:37.538Z,96835.91
2022-10-28T10:15:52.867Z,96823.13
2022-10-28T10:17:19.451Z,96823.38
2022-10-28T10:18:37.247Z,96809.69
2022-10-28T10:20:15.852Z,96799.91
2022-10-28T10:21:55.063Z,96794.97
2022-10-28T10:23:34.251Z,96788.03
2022-10-28T10:24:50.403Z,96779.97
2022-10-28T10:26:12.025Z,96770.63
2022-10-28T10:27:38.078Z,96766.31
2022-10-28T10:28:55.397Z,96761.84
2022-10-28T10:30:25.829Z,96763.78
2022-10-28T10:31:58.983Z,96764.66
2022-10-28T10:33:35.713Z,96775.25
2022-10-28T10:35:00.284Z,96778.31
2022-10-28T10:36:38.207Z,96788.69
2022-10-28T10:37:48.643Z,96798.25
2022-10-28T10:39:26.884Z,96814.56
2022-10-28T10:40:55.233Z,96802.53
2022-10-28T10:43:46.973Z,96792.91
2022-10-28T10:45:31.303Z,96799.47
2022-10-28T10:46:53.277Z,96803.16
2022-10-28T10:48:19.032Z,96799.44
2022-10-28T10:49:32.736Z,96807.75
2022-10-28T10:50:56.704Z,96812.50
2022-10-28T10:52:31.866Z,96806.97
2022-10-28T10:54:04.018Z,96807.41
2022-10-28T10:55:44.580Z,96805.56
2022-10-28T10:57:11.018Z,96811.06
2022-10-28T10:58:21.533Z,96812.88
2022-10-28T10:59:27.561Z,96815.28
2022-10-28T11:00:38.444Z,96819.50
2022-10-28T11:01:41.076Z,96814.03
2022-10-28T11:02:52.218Z,96808.16
2022-10-28T11:04:04.432Z,96815.59
2022-10-28T11:05:09.114Z,96812.50
2022-10-28T11:06:24.743Z,96816.34
2022-10-28T11:07:29.099Z,96817.38
2022-10-28T11:08:40.236Z,96813.53
2022-10-28T11:09:47.690Z,96814.78
2022-10-28T11:11:06.864Z,96814.97
2022-10-28T11:12:30.785Z,96808.34
2022-10-28T11:13:35.804Z,96798.91
2022-10-28T11:14:41.515Z,96797.94
2022-10-28T11:16:02.495Z,96791.28
2022-10-28T11:17:25.375Z,96793.13
2022-10-28T11:18:32.162Z,96786.63
2022-10-28T11:19:39.855Z,96774.50
2022-10-28T11:20:54.145Z,96770.06
2022-10-28T11:22:12.859Z,96760.59
2022-10-28T11:23:29.305Z,96753.94
2022-10-28T11:24:47.916Z,96746.16
2022-10-28T11:25:58.273Z,96748.69
2022-10-28T11:27:10.817Z,96757.91
2022-10-28T11:28:59.621Z,96770.56
2022-10-28T11:30:03.972Z,96777.97
2022-10-28T11:31:34.737Z,96772.59
2022-10-28T11:33:01.699Z,96766.03
2022-10-28T11:34:34.949Z,96769.34
2022-10-28T11:35:48.864Z,96754.41
2022-10-28T11:37:09.819Z,96748.72
2022-10-28T11:38:25.006Z,96756.34
2022-10-28T11:39:36.872Z,96764.72
2022-10-28T11:40:57.898Z,96764.59
2022-10-28T11:42:21.526Z,96761.09
2022-10-28T11:43:33.169Z,96760.75
2022-10-28T11:44:46.181Z,96765.34
2022-10-28T11:46:00.378Z,96768.72
2022-10-28T11:47:19.682Z,96768.31
2022-10-28T11:48:41.228Z,96767.38
2022-10-28T11:50:15.284Z,96769.28
2022-10-28T11:51:39.632Z,96778.25
2022-10-28T11:52:59.012Z,96770.75
2022-10-28T11:54:38.854Z,96774.19
2022-10-28T11:55:47.933Z,96767.53
2022-10-28T11:57:01.761Z,96768.78
2022-10-28T11:58:31.484Z,96771.91
2022-10-28T12:00:06.457Z,96761.41
2022-10-28T12:01:23.718Z,96760.72
2022-10-28T12:02:42.219Z,96764.38
2022-10-28T12:04:01.586Z,96773.22
2022-10-28T12:05:14.695Z,96767.72
2022-10-28T12:06:25.940Z,96768.28
2022-10-28T12:07:52.855Z,96762.88
2022-10-28T12:09:10.916Z,96761.06
2022-10-28T12:10:32.075Z,96767.25
2022-10-28T12:11:51.828Z,96772.06
2022-10-28T12:13:05.010Z,96773.03
2022-10-28T12:14:22.290Z,96764.22
2022-10-28T12:15:34.218Z,96765.75
2022-10-28T12:16:56.304Z,96770.06
2022-10-28T12:18:10.872Z,96772.50
2022-10-28T12:19:20.509Z,96769.31
2022-10-28T12:20:30.188Z,96774.06
2022-10-28T12:23:03.191Z,96774.13
2022-10-28T12:24:17.199Z,96770.91
2022-10-28T12:25:24.093Z,96769.63
2022-10-28T12:26:38.858Z,96774.31
2022-10-28T12:27:44.521Z,96768.97
2022-10-28T12:28:52.968Z,96767.31
2022-10-28T12:30:01.541Z,96761.47
2022-10-28T12:31:09.369Z,96765.25
2022-10-28T12:32:14.202Z,96766.22
2022-10-28T12:33:23.784Z,96754.47
2022-10-28T12:34:31.817Z,96753.00
2022-10-28T12:35:41.093Z,96759.22
2022-10-28T12:36:48.480Z,96748.88
2022-10-28T12:38:01.004Z,96761.34
2022-10-28T12:39:12.412Z,96737.28
2022-10-28T12:40:21.627Z,96738.19
2022-10-28T12:41:26.568Z,96710.69
2022-10-28T12:42:35.835Z,96700.75
2022-10-28T12:43:42.576Z,96691.00
2022-10-28T12:44:51.377Z,96685.00
2022-10-28T12:45:58.843Z,96670.94
2022-10-28T12:47:17.152Z,96660.13
2022-10-28T12:48:31.083Z,96654.75
2022-10-28T12:49:45.795Z,96673.38
2022-10-28T12:50:55.667Z,96676.53
2022-10-28T12:52:02.841Z,96685.69
2022-10-28T12:53:27.399Z,96685.59
2022-10-28T12:54:40.114Z,96694.34
2022-10-28T12:55:50.358Z,96696.28
2022-10-28T12:56:57.212Z,96702.16
2022-10-28T12:58:07.510Z,96692.75
2022-10-28T12:59:15.303Z,96689.13
2022-10-28T13:00:25.041Z,96685.25
2022-10-28T13:01:32.430Z,96699.09
2022-10-28T13:02:42.187Z,96693.78
2022-10-28T13:03:46.883Z,96692.78
2022-10-28T13:04:50.201Z,96689.41
2022-10-28T13:06:03.166Z,96691.09
2022-10-28T13:07:23.155Z,96691.00
2022-10-28T13:08:47.542Z,96694.53
2022-10-28T13:10:04.256Z,96689.28
2022-10-28T13:11:41.905Z,96702.09
2022-10-28T13:13:26.874Z,96701.63
2022-10-28T13:15:00.851Z,96696.97
2022-10-28T13:16:38.616Z,96708.59
2022-10-28T13:17:59.070Z,96702.78
2022-10-28T13:19:32.763Z,96698.28
2022-10-28T13:20:48.480Z,96709.44
2022-10-28T13:22:19.143Z,96705.84
2022-10-28T13:23:32.628Z,96692.72
2022-10-28T13:24:49.726Z,96692.72
2022-10-28T13:25:59.281Z,96687.59
2022-10-28T13:27:05.735Z,96689.50
2022-10-28T13:28:13.924Z,96699.88
2022-10-28T13:29:25.965Z,96696.69
2022-10-28T13:30:32.118Z,96699.28
2022-10-28T13:31:47.606Z,96697.69
2022-10-28T13:33:00.566Z,96706.69
2022-10-28T13:34:05.339Z,96701.88
2022-10-28T13:35:20.927Z,96705.84
2022-10-28T13:36:30.257Z,96707.00
2022-10-28T13:37:36.590Z,96708.50
2022-10-28T13:38:43.350Z,96698.44
2022-10-28T13:39:50.283Z,96701.34
2022-10-28T13:41:14.619Z,96695.19
2022-10-28T13:42:50.112Z,96694.44
2022-10-28T13:44:31.404Z,96694.69
2022-10-28T13:45:48.851Z,96694.94
2022-10-28T13:47:27.265Z,96694.97
2022-10-28T13:48:50.214Z,96690.47
2022-10-28T13:50:37.416Z,96693.09
2022-10-28T13:51:46.709Z,96696.28
2022-10-28T13:53:27.076Z,96687.06
2022-10-28T13:54:35.351Z,96683.41
2022-10-28T13:55:44.283Z,96687.66
2022-10-28T13:56:51.247Z,96683.31
2022-10-28T13:58:03.550Z,96689.31
2022-10-28T13:59:18.262Z,96689.16
2022-10-28T14:00:39.322Z,96692.06
2022-10-28T14:02:34.645Z,96691.44
2022-10-28T14:03:40.469Z,96702.44
2022-10-28T14:04:54.332Z,96704.19
2022-10-28T14:06:01.166Z,96706.78
2022-10-28T14:07:21.502Z,96699.28
2022-10-28T14:08:32.514Z,96694.78
2022-10-28T14:09:36.329Z,96703.91
2022-10-28T14:10:42.810Z,96702.22
2022-10-28T14:11:44.869Z,96700.59
2022-10-28T14:12:53.359Z,96698.66
2022-10-28T14:14:00.109Z,96706.13
2022-10-28T14:15:23.350Z,96704.50
2022-10-28T14:16:33.194Z,96697.97
2022-10-28T14:17:40.747Z,96699.13
2022-10-28T14:18:54.565Z,96694.50
2022-10-28T14:19:57.641Z,96695.34
2022-10-28T14:21:02.508Z,96696.72
2022-10-28T14:22:07.789Z,96701.94
2022-10-28T14:23:42.656Z,96705.50
2022-10-28T14:24:47.664Z,96700.31
2022-10-28T14:26:04.819Z,96702.69
2022-10-28T14:27:31.924Z,96706.25
2022-10-28T14:28:58.209Z,96706.16
2022-10-28T14:30:30.126Z,96707.97
2022-10-28T14:31:45.645Z,96715.28
2022-10-28T14:33:14.065Z,96713.69
2022-10-28T14:34:39.152Z,96716.72
2022-10-28T14:35:45.730Z,96716.09
2022-10-28T14:37:03.081Z,96717.75
2022-10-28T14:38:58.074Z,96715.41
2022-10-28T14:40:19.179Z,96714.91
2022-10-28T14:41:41.400Z,96716.56
2022-10-28T14:43:09.439Z,96715.72
2022-10-28T14:44:25.721Z,96715.66
2022-10-28T14:45:36.923Z,96716.59
2022-10-28T14:46:56.568Z,96722.00
2022-10-28T14:48:30.431Z,96719.63
2022-10-28T14:49:37.631Z,96725.63
2022-10-28T14:50:43.313Z,96726.31
2022-10-28T14:51:49.360Z,96726.56
2022-10-28T14:52:54.346Z,96722.09
2022-10-28T14:54:02.439Z,96722.13
2022-10-28T14:55:08.562Z,96729.56
2022-10-28T14:56:21.231Z,96724.88
2022-10-28T14:57:31.011Z,96722.28
2022-10-28T14:58:40.341Z,96725.56
2022-10-28T14:59:47.672Z,96720.63
2022-10-28T15:01:02.159Z,96723.22
2022-10-28T15:02:14.751Z,96718.50
2022-10-28T15:03:19.992Z,96729.03
2022-10-28T15:04:24.807Z,96729.25
2022-10-28T15:05:33.558Z,96722.81
2022-10-28T15:06:39.285Z,96723.25
2022-10-28T15:07:45.186Z,96730.28
2022-10-28T15:08:47.310Z,96726.84
2022-10-28T15:09:53.726Z,96731.88
2022-10-28T15:10:55.965Z,96728.56
2022-10-28T15:12:04.016Z,96723.31
2022-10-28T15:13:06.100Z,96718.88
2022-10-28T15:14:36.847Z,96726.56
2022-10-28T15:15:41.495Z,96728.25
2022-10-28T15:16:48.467Z,96730.53
2022-10-28T15:17:53.572Z,96725.22
2022-10-28T15:18:59.128Z,96723.97
2022-10-28T15:20:04.167Z,96716.72
2022-10-28T15:21:11.981Z,96726.53
2022-10-28T15:22:19.519Z,96725.16
2022-10-28T15:23:23.455Z,96724.56
2022-10-28T15:24:28.174Z,96727.09
2022-10-28T15:25:33.115Z,96722.63
2022-10-28T15:26:35.200Z,96728.75
2022-10-28T15:27:42.086Z,96728.47
2022-10-28T15:28:44.151Z,96729.25
2022-10-28T15:29:48.838Z,96737.91
2022-10-28T15:30:51.196Z,96731.75
2022-10-28T15:32:17.220Z,96727.03
2022-10-28T15:33:23.535Z,96721.75
2022-10-28T15:34:29.684Z,96720.06
2022-10-28T15:35:42.438Z,96731.44
2022-10-28T15:36:48.982Z,96725.28
2022-10-28T15:37:53.918Z,96726.81
2022-10-28T15:39:09.491Z,96728.31
2022-10-28T15:40:23.943Z,96728.03
2022-10-28T15:41:49.507Z,96732.25
2022-10-28T15:43:00.262Z,96724.03
2022-10-28T15:44:03.524Z,96727.34
2022-10-28T15:45:18.357Z,96728.44
2022-10-28T15:46:20.449Z,96735.34
2022-10-28T15:47:33.013Z,96732.53
2022-10-28T15:48:35.746Z,96734.84
2022-10-28T15:49:45.558Z,96730.91